sensor_id;sensor_type;location;lat;lon;timestamp;P1;durP1;ratioP1;P2;durP2;ratioP2
7527;SDS011;3805;49.006;8.514;2023-10-19T00:01:28;30.03;;;20.80;;
7527;SDS011;3805;49.006;8.514;2023-10-19T00:04:17;24.60;;;19.70;;
7527;SDS011;3805;49.006;8.514;2023-10-19T00:07:06;25.27;;;20.23;;
7527;SDS011;3805;49.006;8.514;2023-10-19T00:10:04;23.30;;;19.13;;
7527;SDS011;3805;49.006;8.514;2023-10-19T00:12:53;25.53;;;20.20;;
7527;SDS011;3805;49.006;8.514;2023-10-19T00:15:47;25.70;;;19.13;;
7527;SDS011;3805;49.006;8.514;2023-10-19T00:18:35;21.30;;;17.83;;
7527;SDS011;3805;49.006;8.514;2023-10-19T00:21:30;23.33;;;18.60;;
7527;SDS011;3805;49.006;8.514;2023-10-19T00:24:35;24.73;;;18.77;;
7527;SDS011;3805;49.006;8.514;2023-10-19T00:27:23;22.67;;;18.27;;
7527;SDS011;3805;49.006;8.514;2023-10-19T00:30:14;24.77;;;18.77;;
7527;SDS011;3805;49.006;8.514;2023-10-19T00:33:05;25.53;;;18.13;;
7527;SDS011;3805;49.006;8.514;2023-10-19T00:36:03;24.40;;;19.20;;
7527;SDS011;3805;49.006;8.514;2023-10-19T00:38:56;24.70;;;19.17;;
7527;SDS011;3805;49.006;8.514;2023-10-19T00:41:48;26.20;;;20.07;;
7527;SDS011;3805;49.006;8.514;2023-10-19T00:44:36;25.93;;;20.90;;
7527;SDS011;3805;49.006;8.514;2023-10-19T00:47:29;26.30;;;20.60;;
7527;SDS011;3805;49.006;8.514;2023-10-19T00:50:27;27.03;;;19.83;;
7527;SDS011;3805;49.006;8.514;2023-10-19T00:53:18;24.00;;;19.83;;
7527;SDS011;3805;49.006;8.514;2023-10-19T00:56:08;26.47;;;20.30;;
7527;SDS011;3805;49.006;8.514;2023-10-19T00:58:57;21.53;;;18.63;;
7527;SDS011;3805;49.006;8.514;2023-10-19T01:01:54;24.60;;;18.57;;
7527;SDS011;3805;49.006;8.514;2023-10-19T01:04:51;26.23;;;21.17;;
7527;SDS011;3805;49.006;8.514;2023-10-19T01:07:43;24.40;;;19.87;;
7527;SDS011;3805;49.006;8.514;2023-10-19T01:10:34;24.93;;;19.00;;
7527;SDS011;3805;49.006;8.514;2023-10-19T01:13:24;23.63;;;19.40;;
7527;SDS011;3805;49.006;8.514;2023-10-19T01:16:19;28.50;;;21.43;;
7527;SDS011;3805;49.006;8.514;2023-10-19T01:19:09;26.53;;;19.90;;
7527;SDS011;3805;49.006;8.514;2023-10-19T01:22:07;23.73;;;18.30;;
7527;SDS011;3805;49.006;8.514;2023-10-19T01:25:05;25.07;;;18.67;;
7527;SDS011;3805;49.006;8.514;2023-10-19T01:27:57;27.50;;;19.60;;
7527;SDS011;3805;49.006;8.514;2023-10-19T01:30:46;25.90;;;18.93;;
7527;SDS011;3805;49.006;8.514;2023-10-19T01:33:41;25.30;;;19.60;;
7527;SDS011;3805;49.006;8.514;2023-10-19T01:36:30;25.77;;;18.30;;
7527;SDS011;3805;49.006;8.514;2023-10-19T01:39:24;29.97;;;21.73;;
7527;SDS011;3805;49.006;8.514;2023-10-19T01:42:14;23.47;;;19.10;;
7527;SDS011;3805;49.006;8.514;2023-10-19T01:45:04;27.23;;;20.07;;
7527;SDS011;3805;49.006;8.514;2023-10-19T01:47:53;28.20;;;20.30;;
7527;SDS011;3805;49.006;8.514;2023-10-19T01:50:42;28.07;;;19.67;;
7527;SDS011;3805;49.006;8.514;2023-10-19T01:53:30;25.93;;;20.67;;
7527;SDS011;3805;49.006;8.514;2023-10-19T01:56:18;24.87;;;20.47;;
7527;SDS011;3805;49.006;8.514;2023-10-19T01:59:10;23.60;;;18.73;;
7527;SDS011;3805;49.006;8.514;2023-10-19T02:01:58;22.17;;;18.03;;
7527;SDS011;3805;49.006;8.514;2023-10-19T02:04:46;23.50;;;19.43;;
7527;SDS011;3805;49.006;8.514;2023-10-19T02:07:38;27.60;;;20.40;;
7527;SDS011;3805;49.006;8.514;2023-10-19T02:10:26;23.03;;;19.73;;
7527;SDS011;3805;49.006;8.514;2023-10-19T02:13:15;26.13;;;19.40;;
7527;SDS011;3805;49.006;8.514;2023-10-19T02:16:05;22.30;;;18.43;;
7527;SDS011;3805;49.006;8.514;2023-10-19T02:18:55;25.63;;;20.60;;
7527;SDS011;3805;49.006;8.514;2023-10-19T02:21:43;23.67;;;18.17;;
7527;SDS011;3805;49.006;8.514;2023-10-19T02:24:35;26.57;;;18.97;;
7527;SDS011;3805;49.006;8.514;2023-10-19T02:27:23;25.80;;;20.10;;
7527;SDS011;3805;49.006;8.514;2023-10-19T02:30:19;26.60;;;19.50;;
7527;SDS011;3805;49.006;8.514;2023-10-19T02:33:09;25.10;;;20.13;;
7527;SDS011;3805;49.006;8.514;2023-10-19T02:35:59;23.93;;;19.60;;
7527;SDS011;3805;49.006;8.514;2023-10-19T02:38:46;20.00;;;17.87;;
7527;SDS011;3805;49.006;8.514;2023-10-19T02:41:38;27.33;;;19.20;;
7527;SDS011;3805;49.006;8.514;2023-10-19T02:44:26;23.47;;;18.40;;
7527;SDS011;3805;49.006;8.514;2023-10-19T02:47:16;21.10;;;18.30;;
7527;SDS011;3805;49.006;8.514;2023-10-19T02:50:06;19.37;;;15.70;;
7527;SDS011;3805;49.006;8.514;2023-10-19T02:52:59;20.93;;;17.87;;
7527;SDS011;3805;49.006;8.514;2023-10-19T02:55:48;20.40;;;17.20;;
7527;SDS011;3805;49.006;8.514;2023-10-19T02:58:40;23.23;;;17.40;;
7527;SDS011;3805;49.006;8.514;2023-10-19T03:01:30;25.23;;;19.03;;
7527;SDS011;3805;49.006;8.514;2023-10-19T03:04:20;21.60;;;17.60;;
7527;SDS011;3805;49.006;8.514;2023-10-19T03:07:10;30.70;;;19.17;;
7527;SDS011;3805;49.006;8.514;2023-10-19T03:10:00;29.50;;;20.73;;
7527;SDS011;3805;49.006;8.514;2023-10-19T03:12:49;26.10;;;18.37;;
7527;SDS011;3805;49.006;8.514;2023-10-19T03:15:38;25.37;;;17.90;;
7527;SDS011;3805;49.006;8.514;2023-10-19T03:18:29;28.50;;;18.67;;
7527;SDS011;3805;49.006;8.514;2023-10-19T03:21:18;24.50;;;19.00;;
7527;SDS011;3805;49.006;8.514;2023-10-19T03:24:08;24.60;;;18.73;;
7527;SDS011;3805;49.006;8.514;2023-10-19T03:27:10;21.60;;;17.30;;
7527;SDS011;3805;49.006;8.514;2023-10-19T03:30:02;22.53;;;18.20;;
7527;SDS011;3805;49.006;8.514;2023-10-19T03:32:52;24.77;;;18.00;;
7527;SDS011;3805;49.006;8.514;2023-10-19T03:35:40;23.67;;;18.37;;
7527;SDS011;3805;49.006;8.514;2023-10-19T03:38:29;22.17;;;18.33;;
7527;SDS011;3805;49.006;8.514;2023-10-19T03:41:23;22.13;;;18.27;;
7527;SDS011;3805;49.006;8.514;2023-10-19T03:44:13;22.53;;;18.57;;
7527;SDS011;3805;49.006;8.514;2023-10-19T03:47:06;22.67;;;18.07;;
7527;SDS011;3805;49.006;8.514;2023-10-19T03:50:00;25.70;;;19.63;;
7527;SDS011;3805;49.006;8.514;2023-10-19T03:52:53;25.93;;;18.23;;
7527;SDS011;3805;49.006;8.514;2023-10-19T03:55:42;19.67;;;17.27;;
7527;SDS011;3805;49.006;8.514;2023-10-19T03:58:32;24.43;;;17.60;;
7527;SDS011;3805;49.006;8.514;2023-10-19T04:01:21;19.60;;;17.50;;
7527;SDS011;3805;49.006;8.514;2023-10-19T04:04:10;23.33;;;18.00;;
7527;SDS011;3805;49.006;8.514;2023-10-19T04:07:00;23.10;;;18.60;;
7527;SDS011;3805;49.006;8.514;2023-10-19T04:09:58;23.27;;;18.30;;
7527;SDS011;3805;49.006;8.514;2023-10-19T04:12:56;21.97;;;18.27;;
7527;SDS011;3805;49.006;8.514;2023-10-19T04:15:48;24.53;;;19.90;;
7527;SDS011;3805;49.006;8.514;2023-10-19T04:18:38;24.73;;;18.23;;
7527;SDS011;3805;49.006;8.514;2023-10-19T04:21:31;19.20;;;17.17;;
7527;SDS011;3805;49.006;8.514;2023-10-19T04:24:21;21.60;;;18.20;;
7527;SDS011;3805;49.006;8.514;2023-10-19T04:27:09;20.63;;;17.07;;
7527;SDS011;3805;49.006;8.514;2023-10-19T04:30:00;21.27;;;17.30;;
7527;SDS011;3805;49.006;8.514;2023-10-19T04:32:51;21.07;;;17.23;;
7527;SDS011;3805;49.006;8.514;2023-10-19T04:35:40;23.60;;;17.23;;
7527;SDS011;3805;49.006;8.514;2023-10-19T04:38:29;21.30;;;16.57;;
7527;SDS011;3805;49.006;8.514;2023-10-19T04:41:20;21.70;;;18.17;;
7527;SDS011;3805;49.006;8.514;2023-10-19T04:44:09;21.87;;;17.57;;
7527;SDS011;3805;49.006;8.514;2023-10-19T04:46:58;23.27;;;17.00;;
7527;SDS011;3805;49.006;8.514;2023-10-19T04:49:48;26.43;;;17.87;;
7527;SDS011;3805;49.006;8.514;2023-10-19T04:52:36;30.77;;;16.77;;
7527;SDS011;3805;49.006;8.514;2023-10-19T04:55:25;22.83;;;17.70;;
7527;SDS011;3805;49.006;8.514;2023-10-19T04:58:14;21.53;;;18.00;;
7527;SDS011;3805;49.006;8.514;2023-10-19T05:01:04;22.83;;;16.73;;
7527;SDS011;3805;49.006;8.514;2023-10-19T05:03:52;21.70;;;16.70;;
7527;SDS011;3805;49.006;8.514;2023-10-19T05:06:43;21.70;;;17.27;;
7527;SDS011;3805;49.006;8.514;2023-10-19T05:09:34;22.50;;;19.47;;
7527;SDS011;3805;49.006;8.514;2023-10-19T05:12:25;23.90;;;19.00;;
7527;SDS011;3805;49.006;8.514;2023-10-19T05:15:14;28.63;;;18.87;;
7527;SDS011;3805;49.006;8.514;2023-10-19T05:18:03;24.07;;;16.77;;
7527;SDS011;3805;49.006;8.514;2023-10-19T05:20:52;27.43;;;16.07;;
7527;SDS011;3805;49.006;8.514;2023-10-19T05:23:44;21.30;;;15.97;;
7527;SDS011;3805;49.006;8.514;2023-10-19T05:26:33;24.87;;;19.50;;
7527;SDS011;3805;49.006;8.514;2023-10-19T05:29:22;48.17;;;21.73;;
7527;SDS011;3805;49.006;8.514;2023-10-19T05:32:11;27.60;;;20.10;;
7527;SDS011;3805;49.006;8.514;2023-10-19T05:34:59;24.70;;;19.50;;
7527;SDS011;3805;49.006;8.514;2023-10-19T05:37:51;25.47;;;18.40;;
7527;SDS011;3805;49.006;8.514;2023-10-19T05:40:41;24.47;;;17.20;;
7527;SDS011;3805;49.006;8.514;2023-10-19T05:43:31;24.50;;;16.00;;
7527;SDS011;3805;49.006;8.514;2023-10-19T05:46:21;21.87;;;15.27;;
7527;SDS011;3805;49.006;8.514;2023-10-19T05:49:12;22.80;;;17.33;;
7527;SDS011;3805;49.006;8.514;2023-10-19T05:52:04;22.30;;;18.00;;
7527;SDS011;3805;49.006;8.514;2023-10-19T05:54:52;23.27;;;18.30;;
7527;SDS011;3805;49.006;8.514;2023-10-19T05:57:43;22.43;;;18.13;;
7527;SDS011;3805;49.006;8.514;2023-10-19T06:00:31;24.70;;;17.00;;
7527;SDS011;3805;49.006;8.514;2023-10-19T06:03:23;19.57;;;14.20;;
7527;SDS011;3805;49.006;8.514;2023-10-19T06:06:11;21.60;;;16.40;;
7527;SDS011;3805;49.006;8.514;2023-10-19T06:09:00;18.63;;;16.10;;
7527;SDS011;3805;49.006;8.514;2023-10-19T06:11:52;23.03;;;17.00;;
7527;SDS011;3805;49.006;8.514;2023-10-19T06:14:42;25.40;;;20.67;;
7527;SDS011;3805;49.006;8.514;2023-10-19T06:17:31;28.97;;;18.93;;
7527;SDS011;3805;49.006;8.514;2023-10-19T06:20:20;29.57;;;20.50;;
7527;SDS011;3805;49.006;8.514;2023-10-19T06:23:11;29.17;;;19.40;;
7527;SDS011;3805;49.006;8.514;2023-10-19T06:26:08;30.83;;;19.57;;
7527;SDS011;3805;49.006;8.514;2023-10-19T06:28:58;93.57;;;25.73;;
7527;SDS011;3805;49.006;8.514;2023-10-19T06:31:48;38.40;;;21.67;;
7527;SDS011;3805;49.006;8.514;2023-10-19T06:34:38;40.70;;;21.80;;
7527;SDS011;3805;49.006;8.514;2023-10-19T06:37:29;78.13;;;25.20;;
7527;SDS011;3805;49.006;8.514;2023-10-19T06:40:18;37.70;;;20.33;;
7527;SDS011;3805;49.006;8.514;2023-10-19T06:43:07;22.17;;;18.20;;
7527;SDS011;3805;49.006;8.514;2023-10-19T06:45:56;30.07;;;19.33;;
7527;SDS011;3805;49.006;8.514;2023-10-19T06:48:46;28.73;;;20.20;;
7527;SDS011;3805;49.006;8.514;2023-10-19T06:51:34;19.67;;;17.57;;
7527;SDS011;3805;49.006;8.514;2023-10-19T06:54:23;31.53;;;18.40;;
7527;SDS011;3805;49.006;8.514;2023-10-19T06:57:13;21.10;;;17.70;;
7527;SDS011;3805;49.006;8.514;2023-10-19T07:00:01;22.37;;;17.40;;
7527;SDS011;3805;49.006;8.514;2023-10-19T07:03:01;20.97;;;17.23;;
7527;SDS011;3805;49.006;8.514;2023-10-19T07:05:52;21.47;;;17.50;;
7527;SDS011;3805;49.006;8.514;2023-10-19T07:08:41;24.27;;;17.47;;
7527;SDS011;3805;49.006;8.514;2023-10-19T07:11:29;24.93;;;18.87;;
7527;SDS011;3805;49.006;8.514;2023-10-19T07:14:18;22.37;;;18.07;;
7527;SDS011;3805;49.006;8.514;2023-10-19T07:17:09;24.53;;;20.80;;
7527;SDS011;3805;49.006;8.514;2023-10-19T07:19:59;28.57;;;19.50;;
7527;SDS011;3805;49.006;8.514;2023-10-19T07:22:51;21.53;;;19.23;;
7527;SDS011;3805;49.006;8.514;2023-10-19T07:25:40;24.17;;;19.17;;
7527;SDS011;3805;49.006;8.514;2023-10-19T07:28:31;21.80;;;18.13;;
7527;SDS011;3805;49.006;8.514;2023-10-19T07:31:23;23.07;;;18.67;;
7527;SDS011;3805;49.006;8.514;2023-10-19T07:34:14;24.37;;;18.60;;
7527;SDS011;3805;49.006;8.514;2023-10-19T07:37:03;21.70;;;19.00;;
7527;SDS011;3805;49.006;8.514;2023-10-19T07:39:53;23.50;;;20.03;;
7527;SDS011;3805;49.006;8.514;2023-10-19T07:42:44;22.50;;;19.00;;
7527;SDS011;3805;49.006;8.514;2023-10-19T07:45:33;21.37;;;17.93;;
7527;SDS011;3805;49.006;8.514;2023-10-19T07:48:23;22.03;;;17.73;;
7527;SDS011;3805;49.006;8.514;2023-10-19T07:51:13;22.93;;;19.87;;
7527;SDS011;3805;49.006;8.514;2023-10-19T07:54:02;23.10;;;18.97;;
7527;SDS011;3805;49.006;8.514;2023-10-19T07:56:52;24.57;;;20.20;;
7527;SDS011;3805;49.006;8.514;2023-10-19T07:59:41;20.33;;;18.23;;
7527;SDS011;3805;49.006;8.514;2023-10-19T08:02:30;21.90;;;19.30;;
7527;SDS011;3805;49.006;8.514;2023-10-19T08:05:21;22.27;;;17.20;;
7527;SDS011;3805;49.006;8.514;2023-10-19T08:08:10;20.97;;;18.10;;
7527;SDS011;3805;49.006;8.514;2023-10-19T08:10:59;25.23;;;17.13;;
7527;SDS011;3805;49.006;8.514;2023-10-19T08:13:50;22.00;;;18.30;;
7527;SDS011;3805;49.006;8.514;2023-10-19T08:16:38;20.70;;;17.20;;
7527;SDS011;3805;49.006;8.514;2023-10-19T08:19:28;19.60;;;17.43;;
7527;SDS011;3805;49.006;8.514;2023-10-19T08:22:18;19.53;;;16.63;;
7527;SDS011;3805;49.006;8.514;2023-10-19T08:25:07;21.37;;;16.53;;
7527;SDS011;3805;49.006;8.514;2023-10-19T08:28:00;15.27;;;13.67;;
7527;SDS011;3805;49.006;8.514;2023-10-19T08:30:50;19.43;;;15.43;;
7527;SDS011;3805;49.006;8.514;2023-10-19T08:33:45;17.00;;;14.00;;
7527;SDS011;3805;49.006;8.514;2023-10-19T08:36:35;17.27;;;13.87;;
7527;SDS011;3805;49.006;8.514;2023-10-19T08:39:24;13.87;;;12.47;;
7527;SDS011;3805;49.006;8.514;2023-10-19T08:42:14;14.27;;;12.83;;
7527;SDS011;3805;49.006;8.514;2023-10-19T08:45:06;17.60;;;13.67;;
7527;SDS011;3805;49.006;8.514;2023-10-19T08:47:57;16.17;;;14.07;;
7527;SDS011;3805;49.006;8.514;2023-10-19T08:50:48;17.30;;;13.13;;
7527;SDS011;3805;49.006;8.514;2023-10-19T08:53:37;16.50;;;14.20;;
7527;SDS011;3805;49.006;8.514;2023-10-19T08:56:27;16.70;;;13.80;;
7527;SDS011;3805;49.006;8.514;2023-10-19T08:59:17;16.73;;;14.93;;
7527;SDS011;3805;49.006;8.514;2023-10-19T09:02:05;18.20;;;13.57;;
7527;SDS011;3805;49.006;8.514;2023-10-19T09:04:56;19.90;;;12.83;;
7527;SDS011;3805;49.006;8.514;2023-10-19T09:07:47;15.57;;;14.07;;
7527;SDS011;3805;49.006;8.514;2023-10-19T09:10:42;15.00;;;13.50;;
7527;SDS011;3805;49.006;8.514;2023-10-19T09:13:45;15.43;;;13.93;;
7527;SDS011;3805;49.006;8.514;2023-10-19T09:16:35;14.53;;;13.23;;
7527;SDS011;3805;49.006;8.514;2023-10-19T09:19:39;14.73;;;13.20;;
7527;SDS011;3805;49.006;8.514;2023-10-19T09:22:35;16.10;;;13.37;;
7527;SDS011;3805;49.006;8.514;2023-10-19T09:25:31;14.10;;;12.80;;
7527;SDS011;3805;49.006;8.514;2023-10-19T09:28:22;13.00;;;11.70;;
7527;SDS011;3805;49.006;8.514;2023-10-19T09:31:11;12.57;;;11.47;;
7527;SDS011;3805;49.006;8.514;2023-10-19T09:34:00;12.00;;;11.00;;
7527;SDS011;3805;49.006;8.514;2023-10-19T09:36:52;11.77;;;10.63;;
7527;SDS011;3805;49.006;8.514;2023-10-19T09:39:42;11.70;;;10.43;;
7527;SDS011;3805;49.006;8.514;2023-10-19T09:42:32;11.80;;;10.70;;
7527;SDS011;3805;49.006;8.514;2023-10-19T09:45:21;11.27;;;10.37;;
7527;SDS011;3805;49.006;8.514;2023-10-19T09:48:11;10.50;;;9.50;;
7527;SDS011;3805;49.006;8.514;2023-10-19T09:51:05;10.93;;;8.90;;
7527;SDS011;3805;49.006;8.514;2023-10-19T09:54:04;10.23;;;9.37;;
7527;SDS011;3805;49.006;8.514;2023-10-19T09:57:02;8.63;;;7.83;;
7527;SDS011;3805;49.006;8.514;2023-10-19T09:59:54;8.60;;;7.80;;
7527;SDS011;3805;49.006;8.514;2023-10-19T10:02:56;9.30;;;8.40;;
7527;SDS011;3805;49.006;8.514;2023-10-19T10:05:44;9.77;;;8.77;;
7527;SDS011;3805;49.006;8.514;2023-10-19T10:08:35;9.13;;;8.23;;
7527;SDS011;3805;49.006;8.514;2023-10-19T10:11:25;10.70;;;9.67;;
7527;SDS011;3805;49.006;8.514;2023-10-19T10:14:21;10.40;;;8.60;;
7527;SDS011;3805;49.006;8.514;2023-10-19T10:17:16;10.13;;;9.07;;
7527;SDS011;3805;49.006;8.514;2023-10-19T10:23:21;9.67;;;8.83;;
7527;SDS011;3805;49.006;8.514;2023-10-19T10:26:14;8.37;;;7.57;;
7527;SDS011;3805;49.006;8.514;2023-10-19T10:29:07;8.90;;;8.17;;
7527;SDS011;3805;49.006;8.514;2023-10-19T10:32:00;11.37;;;8.80;;
7527;SDS011;3805;49.006;8.514;2023-10-19T10:34:49;9.03;;;8.23;;
7527;SDS011;3805;49.006;8.514;2023-10-19T10:37:39;9.73;;;8.73;;
7527;SDS011;3805;49.006;8.514;2023-10-19T10:40:42;9.33;;;8.40;;
7527;SDS011;3805;49.006;8.514;2023-10-19T10:43:31;12.23;;;10.67;;
7527;SDS011;3805;49.006;8.514;2023-10-19T10:46:20;9.43;;;8.53;;
7527;SDS011;3805;49.006;8.514;2023-10-19T10:49:15;11.70;;;10.30;;
7527;SDS011;3805;49.006;8.514;2023-10-19T10:52:04;10.90;;;9.73;;
7527;SDS011;3805;49.006;8.514;2023-10-19T10:54:52;9.80;;;8.90;;
7527;SDS011;3805;49.006;8.514;2023-10-19T10:57:42;10.63;;;9.73;;
7527;SDS011;3805;49.006;8.514;2023-10-19T11:00:32;9.53;;;8.60;;
7527;SDS011;3805;49.006;8.514;2023-10-19T11:03:21;9.57;;;8.60;;
7527;SDS011;3805;49.006;8.514;2023-10-19T11:06:12;11.93;;;10.73;;
7527;SDS011;3805;49.006;8.514;2023-10-19T11:09:08;10.17;;;9.27;;
7527;SDS011;3805;49.006;8.514;2023-10-19T11:11:57;8.50;;;7.70;;
7527;SDS011;3805;49.006;8.514;2023-10-19T11:14:53;11.77;;;9.90;;
7527;SDS011;3805;49.006;8.514;2023-10-19T11:17:42;9.60;;;8.70;;
7527;SDS011;3805;49.006;8.514;2023-10-19T11:20:31;11.23;;;9.63;;
7527;SDS011;3805;49.006;8.514;2023-10-19T11:23:23;10.63;;;9.60;;
7527;SDS011;3805;49.006;8.514;2023-10-19T11:26:23;11.87;;;10.70;;
7527;SDS011;3805;49.006;8.514;2023-10-19T11:29:16;12.57;;;11.13;;
7527;SDS011;3805;49.006;8.514;2023-10-19T11:32:04;13.40;;;12.10;;
7527;SDS011;3805;49.006;8.514;2023-10-19T11:34:53;12.93;;;11.63;;
7527;SDS011;3805;49.006;8.514;2023-10-19T11:37:47;11.93;;;10.80;;
7527;SDS011;3805;49.006;8.514;2023-10-19T11:40:38;14.30;;;11.90;;
7527;SDS011;3805;49.006;8.514;2023-10-19T11:43:26;11.47;;;10.27;;
7527;SDS011;3805;49.006;8.514;2023-10-19T11:46:15;13.47;;;12.07;;
7527;SDS011;3805;49.006;8.514;2023-10-19T11:49:05;11.70;;;10.50;;
7527;SDS011;3805;49.006;8.514;2023-10-19T11:51:54;15.30;;;13.60;;
7527;SDS011;3805;49.006;8.514;2023-10-19T11:54:42;15.47;;;13.30;;
7527;SDS011;3805;49.006;8.514;2023-10-19T11:57:32;16.00;;;14.30;;
7527;SDS011;3805;49.006;8.514;2023-10-19T12:00:24;15.77;;;13.80;;
7527;SDS011;3805;49.006;8.514;2023-10-19T12:03:21;20.33;;;17.40;;
7527;SDS011;3805;49.006;8.514;2023-10-19T12:06:09;16.73;;;15.10;;
7527;SDS011;3805;49.006;8.514;2023-10-19T12:08:59;15.63;;;14.03;;
7527;SDS011;3805;49.006;8.514;2023-10-19T12:12:01;15.43;;;12.60;;
7527;SDS011;3805;49.006;8.514;2023-10-19T12:14:54;19.07;;;15.53;;
7527;SDS011;3805;49.006;8.514;2023-10-19T12:17:43;14.87;;;13.47;;
7527;SDS011;3805;49.006;8.514;2023-10-19T12:20:31;17.57;;;15.10;;
7527;SDS011;3805;49.006;8.514;2023-10-19T12:23:22;16.30;;;14.60;;
7527;SDS011;3805;49.006;8.514;2023-10-19T12:26:12;17.10;;;14.60;;
7527;SDS011;3805;49.006;8.514;2023-10-19T12:29:02;21.30;;;16.37;;
7527;SDS011;3805;49.006;8.514;2023-10-19T12:31:53;18.87;;;16.90;;
7527;SDS011;3805;49.006;8.514;2023-10-19T12:34:43;20.13;;;17.17;;
7527;SDS011;3805;49.006;8.514;2023-10-19T12:37:32;16.73;;;15.03;;
7527;SDS011;3805;49.006;8.514;2023-10-19T12:40:20;16.67;;;14.97;;
7527;SDS011;3805;49.006;8.514;2023-10-19T12:43:15;18.47;;;15.00;;
7527;SDS011;3805;49.006;8.514;2023-10-19T12:46:09;18.33;;;13.53;;
7527;SDS011;3805;49.006;8.514;2023-10-19T12:49:00;14.90;;;12.83;;
7527;SDS011;3805;49.006;8.514;2023-10-19T12:51:49;16.57;;;14.10;;
7527;SDS011;3805;49.006;8.514;2023-10-19T12:54:39;15.30;;;13.10;;
7527;SDS011;3805;49.006;8.514;2023-10-19T12:57:30;17.93;;;14.07;;
7527;SDS011;3805;49.006;8.514;2023-10-19T13:00:19;12.97;;;11.77;;
7527;SDS011;3805;49.006;8.514;2023-10-19T13:03:20;15.07;;;12.20;;
7527;SDS011;3805;49.006;8.514;2023-10-19T13:06:10;12.00;;;10.80;;
7527;SDS011;3805;49.006;8.514;2023-10-19T13:08:59;13.30;;;12.00;;
7527;SDS011;3805;49.006;8.514;2023-10-19T13:11:48;14.30;;;12.33;;
7527;SDS011;3805;49.006;8.514;2023-10-19T13:14:51;12.40;;;11.07;;
7527;SDS011;3805;49.006;8.514;2023-10-19T13:17:39;16.40;;;12.47;;
7527;SDS011;3805;49.006;8.514;2023-10-19T13:20:30;15.83;;;11.73;;
7527;SDS011;3805;49.006;8.514;2023-10-19T13:23:23;11.90;;;10.80;;
7527;SDS011;3805;49.006;8.514;2023-10-19T13:26:11;15.60;;;12.63;;
7527;SDS011;3805;49.006;8.514;2023-10-19T13:29:05;13.77;;;10.93;;
7527;SDS011;3805;49.006;8.514;2023-10-19T13:31:53;13.27;;;11.87;;
7527;SDS011;3805;49.006;8.514;2023-10-19T13:34:43;17.10;;;12.10;;
7527;SDS011;3805;49.006;8.514;2023-10-19T13:37:32;11.00;;;10.00;;
7527;SDS011;3805;49.006;8.514;2023-10-19T13:40:21;14.13;;;12.67;;
7527;SDS011;3805;49.006;8.514;2023-10-19T13:43:11;13.17;;;11.47;;
7527;SDS011;3805;49.006;8.514;2023-10-19T13:46:01;14.17;;;12.50;;
7527;SDS011;3805;49.006;8.514;2023-10-19T13:48:52;15.60;;;11.90;;
7527;SDS011;3805;49.006;8.514;2023-10-19T13:51:41;13.77;;;12.30;;
7527;SDS011;3805;49.006;8.514;2023-10-19T13:54:31;11.60;;;10.40;;
7527;SDS011;3805;49.006;8.514;2023-10-19T13:57:21;13.87;;;12.57;;
7527;SDS011;3805;49.006;8.514;2023-10-19T14:00:10;16.30;;;14.40;;
7527;SDS011;3805;49.006;8.514;2023-10-19T14:03:06;16.90;;;13.53;;
7527;SDS011;3805;49.006;8.514;2023-10-19T14:05:56;16.27;;;12.77;;
7527;SDS011;3805;49.006;8.514;2023-10-19T14:08:45;17.03;;;14.90;;
7527;SDS011;3805;49.006;8.514;2023-10-19T14:11:35;33.27;;;24.57;;
7527;SDS011;3805;49.006;8.514;2023-10-19T14:14:24;26.47;;;23.03;;
7527;SDS011;3805;49.006;8.514;2023-10-19T14:17:14;24.80;;;19.37;;
7527;SDS011;3805;49.006;8.514;2023-10-19T14:20:03;21.20;;;18.30;;
7527;SDS011;3805;49.006;8.514;2023-10-19T14:22:53;19.13;;;16.70;;
7527;SDS011;3805;49.006;8.514;2023-10-19T14:25:42;16.30;;;14.60;;
7527;SDS011;3805;49.006;8.514;2023-10-19T14:28:31;16.77;;;15.17;;
7527;SDS011;3805;49.006;8.514;2023-10-19T14:31:24;17.07;;;15.30;;
7527;SDS011;3805;49.006;8.514;2023-10-19T14:34:13;16.53;;;14.70;;
7527;SDS011;3805;49.006;8.514;2023-10-19T14:37:02;19.50;;;16.50;;
7527;SDS011;3805;49.006;8.514;2023-10-19T14:39:50;19.37;;;16.30;;
7527;SDS011;3805;49.006;8.514;2023-10-19T14:42:40;21.13;;;16.93;;
7527;SDS011;3805;49.006;8.514;2023-10-19T14:45:29;18.53;;;16.20;;
7527;SDS011;3805;49.006;8.514;2023-10-19T14:48:21;21.23;;;17.13;;
7527;SDS011;3805;49.006;8.514;2023-10-19T14:51:10;20.00;;;17.63;;
7527;SDS011;3805;49.006;8.514;2023-10-19T14:53:59;23.23;;;19.70;;
7527;SDS011;3805;49.006;8.514;2023-10-19T14:56:48;23.37;;;19.63;;
7527;SDS011;3805;49.006;8.514;2023-10-19T14:59:39;20.83;;;17.30;;
7527;SDS011;3805;49.006;8.514;2023-10-19T15:02:27;22.07;;;16.90;;
7527;SDS011;3805;49.006;8.514;2023-10-19T15:05:17;21.27;;;16.10;;
7527;SDS011;3805;49.006;8.514;2023-10-19T15:08:06;17.83;;;16.03;;
7527;SDS011;3805;49.006;8.514;2023-10-19T15:10:56;21.30;;;17.73;;
7527;SDS011;3805;49.006;8.514;2023-10-19T15:13:45;16.83;;;15.13;;
7527;SDS011;3805;49.006;8.514;2023-10-19T15:16:40;15.03;;;13.43;;
7527;SDS011;3805;49.006;8.514;2023-10-19T15:19:29;15.87;;;14.27;;
7527;SDS011;3805;49.006;8.514;2023-10-19T15:22:19;17.23;;;15.30;;
7527;SDS011;3805;49.006;8.514;2023-10-19T15:25:08;15.17;;;13.60;;
7527;SDS011;3805;49.006;8.514;2023-10-19T15:27:57;13.80;;;12.60;;
7527;SDS011;3805;49.006;8.514;2023-10-19T15:30:45;13.73;;;12.33;;
7527;SDS011;3805;49.006;8.514;2023-10-19T15:33:34;12.80;;;11.57;;
7527;SDS011;3805;49.006;8.514;2023-10-19T15:36:22;14.80;;;13.40;;
7527;SDS011;3805;49.006;8.514;2023-10-19T15:39:12;14.80;;;13.30;;
7527;SDS011;3805;49.006;8.514;2023-10-19T15:42:01;15.73;;;13.83;;
7527;SDS011;3805;49.006;8.514;2023-10-19T15:44:51;14.70;;;13.30;;
7527;SDS011;3805;49.006;8.514;2023-10-19T15:47:39;14.93;;;13.53;;
7527;SDS011;3805;49.006;8.514;2023-10-19T15:50:28;15.60;;;11.47;;
7527;SDS011;3805;49.006;8.514;2023-10-19T15:53:17;12.33;;;10.20;;
7527;SDS011;3805;49.006;8.514;2023-10-19T15:56:07;12.20;;;11.00;;
7527;SDS011;3805;49.006;8.514;2023-10-19T15:58:56;10.93;;;9.83;;
7527;SDS011;3805;49.006;8.514;2023-10-19T16:01:45;12.87;;;11.50;;
7527;SDS011;3805;49.006;8.514;2023-10-19T16:04:34;11.70;;;9.53;;
7527;SDS011;3805;49.006;8.514;2023-10-19T16:07:22;10.27;;;9.37;;
7527;SDS011;3805;49.006;8.514;2023-10-19T16:10:11;9.63;;;8.77;;
7527;SDS011;3805;49.006;8.514;2023-10-19T16:13:01;9.80;;;8.90;;
7527;SDS011;3805;49.006;8.514;2023-10-19T16:15:50;8.40;;;7.60;;
7527;SDS011;3805;49.006;8.514;2023-10-19T16:18:40;10.80;;;9.70;;
7527;SDS011;3805;49.006;8.514;2023-10-19T16:21:29;9.80;;;8.80;;
7527;SDS011;3805;49.006;8.514;2023-10-19T16:24:18;9.80;;;8.60;;
7527;SDS011;3805;49.006;8.514;2023-10-19T16:27:07;9.53;;;8.53;;
7527;SDS011;3805;49.006;8.514;2023-10-19T16:29:57;10.13;;;8.50;;
7527;SDS011;3805;49.006;8.514;2023-10-19T16:32:45;9.93;;;9.03;;
7527;SDS011;3805;49.006;8.514;2023-10-19T16:35:34;10.23;;;8.37;;
7527;SDS011;3805;49.006;8.514;2023-10-19T16:38:25;8.67;;;7.90;;
7527;SDS011;3805;49.006;8.514;2023-10-19T16:41:16;9.53;;;8.40;;
7527;SDS011;3805;49.006;8.514;2023-10-19T16:44:04;8.77;;;7.97;;
7527;SDS011;3805;49.006;8.514;2023-10-19T16:46:54;13.13;;;10.60;;
7527;SDS011;3805;49.006;8.514;2023-10-19T16:49:43;12.67;;;11.03;;
7527;SDS011;3805;49.006;8.514;2023-10-19T16:52:32;9.23;;;8.30;;
7527;SDS011;3805;49.006;8.514;2023-10-19T16:55:21;8.37;;;7.57;;
7527;SDS011;3805;49.006;8.514;2023-10-19T16:58:09;11.13;;;7.57;;
7527;SDS011;3805;49.006;8.514;2023-10-19T17:00:58;8.43;;;7.70;;
7527;SDS011;3805;49.006;8.514;2023-10-19T17:03:48;7.03;;;6.43;;
7527;SDS011;3805;49.006;8.514;2023-10-19T17:06:37;8.50;;;6.90;;
7527;SDS011;3805;49.006;8.514;2023-10-19T17:09:26;8.07;;;7.33;;
7527;SDS011;3805;49.006;8.514;2023-10-19T17:12:15;7.67;;;6.80;;
7527;SDS011;3805;49.006;8.514;2023-10-19T17:15:05;8.80;;;7.97;;